Latest Weather Observations for Birdsville

IDQ60801

Issued at 5:42 pm EST Thursday 17 October 2019 (issued every 10 minutes, with the page automatically refreshed every 10 minutes)

About weather observations | Map of weather stations | Latest weather observations for QLD | Other Formats
Station Details ID: 038026 Name: BIRDSVILLE AIRPORT Lat: -25.90 Lon: 139.35 Height: 46.6 m
Data from the previous 72 hours. | See also: Recent months at Birdsville
Date/Time
EST
Temp
°C
App
Temp
°C
Dew
Point
°C
Rel
Hum
%
Delta-T
°C
Wind Press
QNH
hPa
Press
MSL
hPa
Rain since
9am
mm
Dir  Spd
km/h
Gust
km/h
Spd
kts
Gust
kts
17/05:30pm 28.0 22.4 1.5 18 12.8 S 20 26 11 14 1015.4 1015.2 0.0
17/05:00pm 28.2 22.3 1.7 18 12.9 S 22 30 12 16 1014.6 1014.4 0.0
17/04:30pm 27.7 22.1 1.2 18 12.7 S 20 28 11 15 1014.6 1014.4 0.0
17/04:00pm 28.0 21.7 1.5 18 12.8 S 24 32 13 17 1014.6 1014.4 0.0
17/03:30pm 28.7 23.1 1.3 17 13.3 SSW 20 28 11 15 1015.4 1015.2 0.0
17/03:00pm 29.8 23.2 2.1 17 13.7 SSW 26 35 14 19 1015.7 1015.5 0.0
17/02:30pm 29.6 23.2 1.1 16 13.9 S 24 33 13 18 1016.1 1015.8 0.0
17/02:00pm 29.3 23.0 1.7 17 13.5 S 24 35 13 19 1016.4 1016.1 0.0
17/01:30pm 29.6 23.0 2.0 17 13.6 SSW 26 43 14 23 1016.7 1016.4 0.0
17/01:00pm 28.1 21.8 1.6 18 12.8 S 24 35 13 19 1017.1 1016.8 0.0
17/12:30pm 28.3 21.4 2.5 19 12.7 S 28 43 15 23 1016.9 1016.6 0.0
17/12:27pm 27.8 20.8 2.1 19 12.6 S 28 46 15 25 1016.9 1016.6 0.0
17/12:00pm 28.1 20.3 3.0 20 12.5 S 33 43 18 23 1017.0 1016.7 0.0
17/11:30am 26.8 19.0 2.7 21 11.8 S 33 43 18 23 1017.0 1016.7 0.0
17/11:00am 25.9 17.7 2.6 22 11.3 SSE 35 46 19 25 1017.4 1017.1 0.0
17/10:30am 25.5 17.9 2.9 23 11.0 SSE 32 44 17 24 1017.9 1017.6 0.0
17/10:00am 24.5 16.3 2.6 24 10.5 S 35 46 19 25 1018.5 1018.2 0.0
17/09:55am 24.3 16.0 1.9 23 10.6 S 35 54 19 29 1018.6 1018.3 0.0
17/09:30am 23.6 14.9 1.9 24 10.3 S 37 50 20 27 1018.3 1018.0 0.0
17/09:00am 22.8 13.7 1.8 25 9.8 S 39 50 21 27 1017.9 1017.6 0.0
17/08:30am 21.4 12.3 1.7 27 9.1 S 39 54 21 29 1017.2 1016.9 0.0
17/08:19am 22.4 14.1 2.0 26 9.6 SSE 35 46 19 25 1016.2 1015.9 0.0
17/08:00am 21.9 14.0 2.1 27 9.3 S 33 48 18 26 1018.2 1017.9 0.0
17/07:30am 21.3 13.5 1.6 27 9.1 S 32 43 17 23 1017.0 1016.7 0.0
17/07:00am 20.9 13.8 1.2 27 9.0 S 28 37 15 20 1016.4 1016.1 0.0
17/06:30am 21.0 13.8 0.8 26 9.2 S 28 35 15 19 1016.3 1016.0 0.0
17/06:00am 21.1 14.6 0.3 25 9.3 S 24 32 13 17 1015.7 1015.5 0.0
17/05:30am 21.5 15.0 0.1 24 9.6 S 24 32 13 17 1015.5 1015.3 0.0
17/05:00am 22.0 14.7 -0.1 23 9.9 S 28 37 15 20 1015.0 1014.8 0.0
17/04:30am 22.5 15.3 0.9 24 9.9 S 28 35 15 19 1014.9 1014.7 0.0
17/04:00am 22.7 16.0 1.7 25 9.8 S 26 35 14 19 1014.6 1014.4 0.0
17/03:30am 22.8 15.4 1.8 25 9.8 SSW 30 39 16 21 1014.5 1014.3 0.0
17/03:00am 23.1 15.8 2.6 26 9.8 SSW 30 35 16 19 1014.3 1014.1 0.0
17/02:30am 23.5 16.6 4.5 29 9.4 SSW 30 39 16 21 1014.1 1013.9 0.0
17/02:00am 24.0 17.6 5.4 30 9.4 SSW 28 35 15 19 1014.0 1013.8 0.0
17/01:30am 24.7 18.1 6.0 30 9.6 SSW 30 37 16 20 1013.8 1013.6 0.0
17/01:00am 25.1 17.6 6.3 30 9.7 SSW 35 44 19 24 1013.7 1013.5 0.0
17/12:30am 25.8 19.8 6.9 30 9.9 SSW 28 39 15 21 1013.3 1013.1 0.0
17/12:00am 26.4 19.7 7.4 30 10.1 SSW 32 37 17 20 1012.9 1012.7 0.0
 
Date/Time
EST
Temp
°C
App
Temp
°C
Dew
Point
°C
Rel
Hum
%
Delta-T
°C
Wind Press
QNH
hPa
Press
MSL
hPa
Rain since
9am
mm
Dir  Spd
km/h
Gust
km/h
Spd
kts
Gust
kts
16/11:30pm 26.9 20.6 7.4 29 10.4 SW 30 35 16 19 1013.3 1013.1 0.0
16/11:00pm 27.2 20.6 7.6 29 10.5 SSW 32 39 17 21 1012.6 1012.4 0.0
16/10:30pm 27.5 21.6 7.4 28 10.8 SSW 28 41 15 22 1012.3 1012.1 0.0
16/10:00pm 27.7 21.8 7.5 28 10.8 SSW 28 35 15 19 1012.0 1011.8 0.0
16/09:30pm 28.0 22.1 7.3 27 11.1 SSW 28 35 15 19 1011.6 1011.4 0.0
16/09:00pm 28.5 21.7 7.1 26 11.5 SW 32 41 17 22 1011.2 1011.0 0.0
16/08:30pm 29.2 21.9 7.2 25 11.8 SW 35 41 19 22 1011.3 1011.1 0.0
16/08:00pm 30.3 22.3 7.5 24 12.4 SW 39 52 21 28 1010.8 1010.6 0.0
16/07:30pm 31.1 24.3 6.9 22 13.1 SW 32 39 17 21 1009.8 1009.6 0.0
16/07:00pm 33.0 27.5 3.9 16 15.2 SW 22 30 12 16 1008.8 1008.6 0.0
16/06:30pm 33.9 26.4 3.7 15 15.8 SSW 32 41 17 22 1008.2 1008.0 0.0
16/06:00pm 35.2 26.8 3.7 14 16.6 SSW 37 46 20 25 1007.3 1007.1 0.0
16/05:30pm 35.9 27.4 3.2 13 17.1 SSW 37 52 20 28 1007.3 1007.1 0.0
16/05:24pm 36.0 28.3 3.3 13 17.2 SSW 33 52 18 28 1007.3 1007.1 0.0
16/05:00pm 35.6 27.3 4.0 14 16.8 SSW 37 48 20 26 1007.1 1006.9 0.0
16/04:30pm 36.0 26.8 3.3 13 17.2 SSW 41 52 22 28 1007.2 1007.0 0.0
16/04:04pm 36.6 29.1 3.7 13 17.4 SSW 32 50 17 27 1006.9 1006.7 0.0
16/04:00pm 36.7 29.3 3.8 13 17.5 SSW 32 39 17 21 1006.8 1006.6 0.0
16/03:30pm 37.3 27.6 3.1 12 18.0 SW 43 54 23 29 1006.5 1006.3 0.0
16/03:00pm 36.9 27.2 2.8 12 17.9 SSW 43 54 23 29 1006.3 1006.1 0.0
16/02:30pm 37.2 27.9 3.1 12 18.0 SSW 41 52 22 28 1006.6 1006.4 0.0
16/02:00pm 35.9 27.4 3.2 13 17.2 SSW 37 50 20 27 1006.5 1006.3 0.0
16/01:30pm 35.5 25.2 2.9 13 16.9 SSW 46 59 25 32 1006.8 1006.6 0.0
16/01:00pm 37.0 27.3 2.9 12 17.9 SW 43 52 23 28 1007.0 1006.8 0.0
16/12:30pm 35.9 27.2 2.1 12 17.4 SSW 37 48 20 26 1006.6 1006.4 0.0
16/12:00pm 35.0 25.4 1.4 12 17.0 SW 41 50 22 27 1006.7 1006.5 0.0
16/11:30am 34.7 25.1 1.1 12 16.9 SW 41 50 22 27 1006.9 1006.7 0.0
16/11:00am 37.3 26.4 -0.9 9 18.9 WSW 46 57 25 31 1006.8 1006.6 0.0
16/10:47am 39.7 32.9 0.9 9 20.0 WSW 26 48 14 26 1006.3 1006.1 0.0
16/10:30am 38.7 33.5 0.2 9 19.5 W 17 26 9 14 1006.2 1006.0 0.0
16/10:00am 37.2 32.4 0.5 10 18.6 WNW 15 22 8 12 1006.2 1006.0 0.0
16/09:30am 36.3 31.3 1.2 11 17.8 WNW 17 22 9 12 1006.3 1006.1 0.0
16/09:00am 34.7 31.0 2.3 13 16.6 N 11 15 6 8 1006.1 1005.9 -
16/08:30am 32.8 28.6 3.7 16 15.1 NNE 15 19 8 10 1006.2 1006.0 -
16/08:00am 31.4 26.7 3.4 17 14.4 NW 17 26 9 14 1005.8 1005.6 -
16/07:42am 30.8 25.8 3.8 18 13.9 N 19 52 10 28 1006.3 1006.1 -
16/07:30am 30.9 25.9 3.8 18 13.9 NNE 19 24 10 13 1005.1 1004.9 -
16/07:00am 30.1 23.1 4.0 19 13.4 NNE 30 35 16 19 1004.8 1004.6 -
16/06:30am 31.2 26.5 3.3 17 14.2 NNE 17 28 9 15 1004.5 1004.3 -
16/06:00am 30.8 27.5 4.5 19 13.7 SSE 11 20 6 11 1004.6 1004.4 -
16/05:30am 30.3 25.4 4.1 19 13.5 NNE 19 24 10 13 1004.0 1003.8 -
16/05:00am 30.7 26.2 4.4 19 13.7 ENE 17 24 9 13 1003.7 1003.5 -
16/04:30am 32.0 27.6 4.7 18 14.3 NNE 17 32 9 17 1003.9 1003.7 -
16/04:00am 31.6 26.0 5.2 19 14.0 NNE 24 32 13 17 1003.4 1003.2 -
16/03:44am 32.0 25.7 5.5 19 14.1 NNE 28 50 15 27 1003.4 1003.2 -
16/03:30am 32.3 26.4 5.7 19 14.2 NNE 26 32 14 17 1003.6 1003.4 -
16/03:00am 31.5 25.3 4.3 18 14.2 N 26 41 14 22 1003.7 1003.5 0.0
16/02:30am 31.6 26.8 4.4 18 14.2 N 19 26 10 14 1003.8 1003.6 -
16/02:00am 29.3 25.0 3.3 19 13.2 N 15 17 8 9 1004.0 1003.8 -
16/01:30am 28.2 24.1 2.4 19 12.7 NE 13 19 7 10 1004.7 1004.5 -
16/01:00am 26.9 22.5 0.6 18 12.5 NE 13 17 7 9 1005.0 1004.8 -
16/12:30am 26.9 22.6 1.3 19 12.3 NE 13 13 7 7 1005.1 1004.9 -
16/12:00am 27.6 23.3 1.2 18 12.7 NE 13 15 7 8 1005.4 1005.2 -
 
Date/Time
EST
Temp
°C
App
Temp
°C
Dew
Point
°C
Rel
Hum
%
Delta-T
°C
Wind Press
QNH
hPa
Press
MSL
hPa
Rain since
9am
mm
Dir  Spd
km/h
Gust
km/h
Spd
kts
Gust
kts
15/11:30pm 28.5 24.5 0.3 16 13.4 NE 11 13 6 7 1005.8 1005.6 -
15/11:00pm 29.4 25.1 1.0 16 13.8 NE 13 17 7 9 1005.8 1005.6 -
15/10:30pm 29.7 25.3 0.3 15 14.1 NE 13 15 7 8 1005.9 1005.7 -
15/10:00pm 30.2 25.7 -0.2 14 14.6 NE 13 15 7 8 1005.8 1005.6 -
15/09:30pm 31.2 27.4 1.5 15 14.7 NE 11 13 6 7 1005.9 1005.7 -
15/09:00pm 31.8 28.4 2.0 15 15.0 NNE 9 9 5 5 1006.1 1005.9 0.2
15/08:30pm 32.3 28.1 -0.7 12 15.8 NE 11 13 6 7 1005.9 1005.7 -
15/08:00pm 33.6 29.6 0.3 12 16.5 NE 11 13 6 7 1005.7 1005.5 -
15/07:30pm 34.9 30.8 0.1 11 17.2 NNE 11 13 6 7 1005.5 1005.3 -
15/07:00pm 37.6 32.7 -0.6 9 19.1 N 15 19 8 10 1005.3 1005.1 -
15/06:30pm 39.6 34.3 -0.8 8 20.3 N 17 20 9 11 1005.1 1004.9 -
15/06:00pm 40.6 35.8 0.0 8 20.8 NNE 15 24 8 13 1005.0 1004.8 -
15/05:30pm 41.1 35.9 0.3 8 21.0 N 17 28 9 15 1004.9 1004.7 -
15/05:00pm 41.5 35.4 0.6 8 21.3 N 22 32 12 17 1004.9 1004.7 -
15/04:30pm 41.0 34.9 0.3 8 21.0 NNE 22 35 12 19 1005.3 1005.1 -
15/04:00pm 41.4 34.9 0.5 8 21.2 NNE 24 35 13 19 1005.6 1005.4 -
15/03:30pm 40.9 34.0 0.2 8 20.9 NNE 26 39 14 21 1006.1 1005.9 -
15/03:00pm 40.6 32.9 0.0 8 20.8 NNE 30 43 16 23 1006.4 1006.2 -
15/02:00pm 40.4 32.0 1.4 9 20.4 NNE 35 48 19 26 1007.4 1007.2 0.0
15/01:30pm 39.6 31.1 0.9 9 20.0 NE 35 50 19 27 1008.0 1007.8 0.0
15/01:11pm 38.8 30.1 1.7 10 19.3 NE 37 57 20 31 1008.4 1008.2 0.0
15/01:00pm 39.2 30.1 2.0 10 19.5 NNE 39 56 21 30 1008.6 1008.4 0.0
15/12:30pm 39.2 30.5 2.0 10 19.5 NE 37 56 20 30 1009.3 1009.1 0.0
15/12:24pm 38.9 30.5 1.8 10 19.3 NE 35 56 19 30 1009.3 1009.1 0.0
15/12:00pm 38.1 29.9 2.5 11 18.7 NE 35 52 19 28 1009.7 1009.5 0.0
15/11:30am 37.2 28.3 3.1 12 18.0 NE 39 52 21 28 1010.0 1009.8 0.0
15/11:00am 36.5 28.1 3.7 13 17.4 ENE 37 46 20 25 1010.5 1010.3 0.0
15/10:30am 35.2 26.8 3.7 14 16.6 NE 37 46 20 25 1010.9 1010.7 0.0
15/10:00am 35.2 27.7 3.7 14 16.6 NE 32 41 17 22 1011.5 1011.3 0.0
15/09:30am 33.4 26.0 4.2 16 15.3 ENE 32 37 17 20 1011.4 1011.2 0.0
15/09:00am 31.5 24.9 4.3 18 14.1 ENE 28 35 15 19 1011.3 1011.1 0.0
15/08:30am 29.1 24.3 4.6 21 12.6 ENE 19 24 10 13 1011.8 1011.6 0.0
15/08:00am 27.5 22.9 3.9 22 11.9 E 17 22 9 12 1011.8 1011.6 0.0
15/07:30am 25.6 21.4 3.6 24 10.9 ESE 15 19 8 10 1011.9 1011.7 0.0
15/07:00am 23.9 20.1 3.8 27 9.9 ESE 13 17 7 9 1011.8 1011.6 0.0
15/06:30am 22.8 19.6 2.8 27 9.6 SE 9 9 5 5 1012.2 1012.0 0.0
15/06:00am 23.7 19.7 3.1 26 10.0 SE 13 17 7 9 1012.0 1011.8 0.0
15/05:30am 24.8 20.2 3.5 25 10.5 SSE 17 20 9 11 1011.7 1011.5 0.0
15/05:00am 25.6 21.0 3.6 24 10.9 SE 17 24 9 13 1011.5 1011.3 0.0
15/04:30am 25.8 21.6 3.7 24 11.0 ESE 15 24 8 13 1011.2 1011.0 0.0
15/04:00am 25.3 22.5 3.3 24 10.8 NNW 7 17 4 9 1011.5 1011.3 0.0
15/03:30am 24.6 18.9 2.7 24 10.6 SSE 22 30 12 16 1010.5 1010.3 0.0
15/03:00am 24.5 20.9 3.2 25 10.4 SSE 11 15 6 8 1011.0 1010.8 0.0
15/02:30am 23.8 20.5 2.6 25 10.2 SE 9 11 5 6 1010.4 1010.2 0.0
15/02:00am 24.5 20.8 2.6 24 10.6 SE 11 13 6 7 1010.6 1010.4 0.0
15/01:30am 25.5 21.5 2.9 23 11.0 SE 13 15 7 8 1011.1 1010.9 0.0
15/01:00am 25.4 21.5 3.4 24 10.8 S 13 17 7 9 1011.7 1011.5 0.0
15/12:30am 25.4 21.5 3.4 24 10.8 SSE 13 15 7 8 1011.5 1011.3 0.0
15/12:00am 25.5 21.2 3.5 24 10.9 SE 15 19 8 10 1011.3 1011.1 0.0
 
Date/Time
EST
Temp
°C
App
Temp
°C
Dew
Point
°C
Rel
Hum
%
Delta-T
°C
Wind Press
QNH
hPa
Press
MSL
hPa
Rain since
9am
mm
Dir  Spd
km/h
Gust
km/h
Spd
kts
Gust
kts
14/11:30pm 26.7 22.4 3.2 22 11.6 SSE 15 20 8 11 1011.9 1011.7 0.0
14/11:00pm 27.3 23.3 3.1 21 12.0 S 13 17 7 9 1011.9 1011.7 0.0
14/10:30pm 28.3 24.0 3.2 20 12.5 SE 15 19 8 10 1011.7 1011.5 0.0
14/10:00pm 29.3 24.2 3.3 19 13.1 SSE 19 20 10 11 1011.7 1011.5 0.0
14/09:30pm 28.8 23.9 2.1 18 13.1 SSE 17 20 9 11 1011.6 1011.4 0.0
14/09:00pm 29.7 24.8 2.1 17 13.7 SSE 17 20 9 11 1011.6 1011.4 0.0
14/08:30pm 30.3 26.1 1.7 16 14.1 SSE 13 17 7 9 1011.3 1011.1 0.0
14/08:00pm 31.4 26.8 1.7 15 14.8 S 15 19 8 10 1011.4 1011.2 0.0
14/07:30pm 32.5 28.1 2.5 15 15.2 S 15 19 8 10 1011.1 1010.9 0.0
14/07:00pm 34.1 30.1 2.8 14 16.1 SSE 13 15 7 8 1010.7 1010.5 0.0
14/06:30pm 35.8 31.3 2.0 12 17.3 S 15 20 8 11 1010.5 1010.3 0.0
14/06:00pm 36.7 31.5 2.7 12 17.8 SSE 19 24 10 13 1010.2 1010.0 0.0

Other formats

Comma delimited format used in spreadsheet applications
http://www.bom.gov.au/fwo/IDQ60801/IDQ60801.95482.axf

JavaScript Object Notation format (JSON) in row-major order
http://www.bom.gov.au/fwo/IDQ60801/IDQ60801.95482.json

Data quality

Most of these data are generated automatically and are frequently updated. Quality checks on data are not normally performed. It is possible for incorrect values to appear. Refer to information at About Latest Weather Observations and please check the disclaimer before using these data.